Time;durP1;ratioP1;P1;durP2;ratioP2;P2;SDS_P1;SDS_P2;PMS_P1;PMS_P2;Temp;Humidity;BMP_temperature;BMP_pressure;BME280_temperature;BME280_humidity;BME280_pressure;Samples;Min_cycle;Max_cycle;Signal;HPM_P1;HPM_P2
2023/07/30 00:00:06;;;;;;;1.03;1.03;;;20.90;99.90;;;21.30;nan;100080.78;5008150;28;20630;-66
2023/07/30 00:02:33;;;;;;;0.80;0.80;;;20.90;99.90;;;21.29;nan;100087.94;4991572;28;21203;-67
2023/07/30 00:05:00;;;;;;;1.10;1.10;;;20.90;99.90;;;21.31;nan;100079.78;4988802;28;20693;-66
2023/07/30 00:07:27;;;;;;;0.80;0.80;;;20.90;99.90;;;21.33;nan;100088.38;4989777;28;21306;-66
2023/07/30 00:09:54;;;;;;;0.70;0.70;;;20.90;99.90;;;21.28;nan;100080.16;4997809;28;20638;-66
2023/07/30 00:12:21;;;;;;;0.90;0.90;;;20.90;99.90;;;21.30;nan;100094.03;5004581;28;20681;-67
2023/07/30 00:14:48;;;;;;;0.63;0.63;;;20.90;99.90;;;21.27;nan;100081.19;5011671;28;20639;-66
2023/07/30 00:17:15;;;;;;;0.80;0.80;;;20.90;99.90;;;21.32;nan;100081.41;5002006;28;20671;-67
2023/07/30 00:19:42;;;;;;;0.80;0.80;;;20.90;99.90;;;21.30;nan;100073.63;4992064;28;20638;-67
2023/07/30 00:22:09;;;;;;;0.80;0.80;;;20.90;99.90;;;21.29;nan;100071.19;4985086;28;21089;-67
2023/07/30 00:24:36;;;;;;;0.50;0.50;;;20.90;99.90;;;21.30;nan;100084.25;5009055;28;21050;-65
2023/07/30 00:27:03;;;;;;;0.60;0.60;;;20.90;99.90;;;21.31;nan;100090.38;5003075;28;21254;-69
2023/07/30 00:29:30;;;;;;;0.53;0.53;;;20.90;99.90;;;21.31;nan;100088.56;5009234;28;20637;-68
2023/07/30 00:31:57;;;;;;;0.50;0.50;;;20.90;99.90;;;21.31;nan;100099.19;4997072;28;20674;-67
2023/07/30 00:34:24;;;;;;;0.80;0.60;;;20.90;99.90;;;21.29;nan;100101.19;5005774;28;20633;-67
2023/07/30 00:36:51;;;;;;;0.70;0.70;;;20.90;99.90;;;21.23;nan;100106.44;4998077;28;21042;-66
2023/07/30 00:39:18;;;;;;;0.60;0.60;;;20.80;99.90;;;21.21;nan;100111.94;5000320;28;20646;-66
2023/07/30 00:41:45;;;;;;;0.80;0.80;;;20.80;99.90;;;21.17;nan;100109.88;5001733;28;20645;-67
2023/07/30 00:44:12;;;;;;;0.60;0.60;;;20.80;99.90;;;21.16;nan;100114.34;4998139;28;20653;-68
2023/07/30 00:46:40;;;;;;;0.70;0.60;;;20.80;99.90;;;21.13;nan;100114.72;4996239;28;20670;-68
2023/07/30 00:49:07;;;;;;;0.80;0.80;;;20.70;99.90;;;21.11;nan;100107.97;5003341;28;20694;-65
2023/07/30 00:51:34;;;;;;;0.80;0.80;;;20.70;99.90;;;21.10;nan;100117.78;4990442;28;20673;-67
2023/07/30 00:54:02;;;;;;;0.97;0.70;;;20.80;99.90;;;21.08;nan;100111.00;5008681;28;20630;-68
2023/07/30 00:56:30;;;;;;;0.70;0.70;;;20.70;99.90;;;21.09;nan;100115.28;5003315;28;20715;-67
2023/07/30 00:58:57;;;;;;;0.60;0.60;;;20.70;99.90;;;21.08;nan;100111.00;5002965;28;20634;-67
2023/07/30 01:01:24;;;;;;;0.63;0.63;;;20.70;99.90;;;21.12;nan;100122.88;5007558;28;21277;-69
2023/07/30 01:03:51;;;;;;;0.63;0.63;;;20.70;99.90;;;21.10;nan;100117.78;4993247;28;20639;-68
2023/07/30 01:06:20;;;;;;;0.70;0.70;;;20.70;99.90;;;21.10;nan;100122.25;4991921;28;20805;-68
2023/07/30 01:08:48;;;;;;;0.70;0.70;;;20.70;99.90;;;21.09;nan;100124.06;4982257;28;21082;-65
2023/07/30 01:11:15;;;;;;;0.57;0.57;;;20.70;99.90;;;21.09;nan;100124.06;4997568;28;20681;-68
2023/07/30 01:13:42;;;;;;;0.60;0.60;;;20.60;99.90;;;21.08;nan;100122.44;4989494;28;20641;-67
2023/07/30 01:16:12;;;;;;;0.67;0.67;;;20.70;99.90;;;21.07;nan;100122.63;4988313;28;21021;-66
2023/07/30 01:18:39;;;;;;;0.70;0.70;;;20.70;99.90;;;21.05;nan;100128.13;5006973;28;20640;-66
2023/07/30 01:21:06;;;;;;;1.67;0.70;;;20.60;99.90;;;21.03;nan;100131.97;5004707;28;20647;-66
2023/07/30 01:23:32;;;;;;;0.80;0.80;;;20.60;99.90;;;21.01;nan;100133.94;5011221;28;21202;-66
2023/07/30 01:26:08;;;;;;;0.90;0.90;;;20.60;99.90;;;21.02;nan;100125.81;4989475;28;20685;-68
2023/07/30 01:28:42;;;;;;;0.90;0.90;;;20.60;99.90;;;21.07;nan;100133.22;4991920;28;20684;-66
2023/07/30 01:31:14;;;;;;;0.80;0.80;;;20.60;99.90;;;21.09;nan;100129.38;5014779;28;20678;-68
2023/07/30 01:33:42;;;;;;;0.70;0.70;;;20.70;99.90;;;21.10;nan;100133.69;5011191;28;21225;-67
2023/07/30 01:36:15;;;;;;;0.87;0.87;;;20.70;99.90;;;21.09;nan;100134.69;5009335;28;20658;-67
2023/07/30 01:38:43;;;;;;;1.53;1.37;;;20.70;99.90;;;21.05;nan;100135.25;4997951;28;21039;-66
2023/07/30 01:41:10;;;;;;;0.90;0.90;;;20.60;99.90;;;21.00;nan;100138.44;5000388;28;20645;-67
2023/07/30 01:43:37;;;;;;;0.90;0.90;;;20.60;99.90;;;21.00;nan;100135.78;5003060;28;20638;-66
2023/07/30 01:46:04;;;;;;;0.70;0.70;;;20.60;99.90;;;21.01;nan;100136.59;4991530;28;20665;-66
2023/07/30 01:48:31;;;;;;;0.93;0.93;;;20.60;99.90;;;21.02;nan;100139.06;5010002;28;21223;-66
2023/07/30 01:50:58;;;;;;;0.70;0.70;;;20.60;99.90;;;21.04;nan;100141.56;5006494;28;20685;-65
2023/07/30 01:53:25;;;;;;;0.70;0.70;;;20.60;99.90;;;21.03;nan;100148.72;5005103;28;20630;-67
2023/07/30 01:55:52;;;;;;;0.77;0.77;;;20.60;99.90;;;21.05;nan;100153.81;4999687;28;20657;-66
2023/07/30 01:58:19;;;;;;;0.70;0.70;;;20.60;99.90;;;21.05;nan;100148.50;5004419;28;20634;-69
2023/07/30 02:00:46;;;;;;;0.80;0.80;;;20.60;99.90;;;21.04;nan;100155.63;5008126;28;20661;-67
2023/07/30 02:03:13;;;;;;;0.97;0.97;;;20.60;99.90;;;21.01;nan;100150.69;5006329;28;21455;-67
2023/07/30 02:05:41;;;;;;;0.60;0.60;;;20.60;99.90;;;20.97;nan;100141.47;5002178;28;20641;-65
2023/07/30 02:08:08;;;;;;;0.73;0.73;;;20.60;99.90;;;20.93;nan;100150.81;5000999;28;20639;-66
2023/07/30 02:10:36;;;;;;;0.87;0.87;;;20.60;99.90;;;20.87;nan;100146.25;5005002;28;20740;-66
2023/07/30 02:13:03;;;;;;;0.80;0.80;;;20.50;99.90;;;20.83;nan;100150.28;5002929;28;20654;-67
2023/07/30 02:15:30;;;;;;;0.80;0.70;;;20.50;99.90;;;20.77;nan;100143.91;5007543;28;20633;-66
2023/07/30 02:17:57;;;;;;;0.70;0.70;;;20.40;99.90;;;20.66;nan;100154.16;4999539;28;20653;-66
2023/07/30 02:20:24;;;;;;;0.53;0.53;;;20.30;99.90;;;20.58;nan;100151.63;5001803;28;20681;-63
2023/07/30 02:22:51;;;;;;;0.60;0.60;;;20.20;99.90;;;20.53;nan;100148.75;4984287;28;21207;-67
2023/07/30 02:25:19;;;;;;;0.60;0.60;;;20.20;99.90;;;20.49;nan;100139.50;4997275;28;20633;-69
2023/07/30 02:27:46;;;;;;;0.57;0.57;;;20.10;99.90;;;20.40;nan;100144.06;5003388;28;20665;-67
2023/07/30 02:30:12;;;;;;;0.87;0.87;;;20.00;99.90;;;20.29;nan;100151.69;5010451;28;20638;-67
2023/07/30 02:32:41;;;;;;;0.83;0.83;;;19.90;99.90;;;20.30;nan;100161.25;4996829;28;20678;-67
2023/07/30 02:35:08;;;;;;;0.73;0.73;;;19.90;99.90;;;20.30;nan;100153.31;5005300;28;21202;-67
2023/07/30 02:37:35;;;;;;;0.87;0.87;;;19.90;99.90;;;20.36;nan;100148.09;4996409;28;21683;-66
2023/07/30 02:40:04;;;;;;;0.80;0.80;;;20.00;99.90;;;20.42;nan;100146.56;5007757;28;20641;-67
2023/07/30 02:42:31;;;;;;;2.40;1.00;;;20.00;99.90;;;20.48;nan;100151.94;4994445;28;20642;-65
2023/07/30 02:44:58;;;;;;;1.30;1.03;;;20.10;99.90;;;20.52;nan;100155.88;4991256;28;20634;-66
2023/07/30 02:47:25;;;;;;;0.87;0.87;;;20.20;99.90;;;20.56;nan;100154.47;5005078;28;20660;-66
2023/07/30 02:49:52;;;;;;;0.90;0.90;;;20.20;99.90;;;20.60;nan;100161.06;4995767;28;20744;-64
2023/07/30 02:52:19;;;;;;;1.20;0.83;;;20.20;99.90;;;20.62;nan;100151.09;4992141;28;20681;-66
2023/07/30 02:54:46;;;;;;;0.70;0.70;;;20.20;99.90;;;20.68;nan;100157.47;4989689;28;20634;-66
2023/07/30 02:57:13;;;;;;;0.87;0.87;;;20.30;99.90;;;20.71;nan;100168.53;4994259;28;20661;-66
2023/07/30 02:59:40;;;;;;;1.00;1.00;;;20.30;99.90;;;20.75;nan;100166.31;4992931;28;21187;-67
2023/07/30 03:02:07;;;;;;;0.80;0.80;;;20.40;99.90;;;20.76;nan;100171.41;5009932;28;20637;-66
2023/07/30 03:04:35;;;;;;;0.77;0.77;;;20.40;99.90;;;20.78;nan;100163.31;4999735;28;20641;-67
2023/07/30 03:07:02;;;;;;;0.90;0.90;;;20.40;99.90;;;20.78;nan;100158.81;5007558;28;21424;-67
2023/07/30 03:09:28;;;;;;;1.03;1.00;;;20.40;99.90;;;20.78;nan;100156.16;4992895;28;20645;-67
2023/07/30 03:11:55;;;;;;;0.70;0.70;;;20.40;99.90;;;20.76;nan;100163.47;4988742;28;20673;-67
2023/07/30 03:14:22;;;;;;;1.00;1.00;;;20.40;99.90;;;20.79;nan;100170.22;5004280;28;20645;-66
2023/07/30 03:16:49;;;;;;;0.80;0.80;;;20.40;99.90;;;20.80;nan;100171.88;4998090;28;20684;-68
2023/07/30 03:19:16;;;;;;;1.40;0.83;;;20.40;99.90;;;20.75;nan;100175.09;4995117;28;20644;-67
2023/07/30 03:21:43;;;;;;;0.77;0.77;;;20.40;99.90;;;20.72;nan;100179.97;4993388;28;20646;-66
2023/07/30 03:24:10;;;;;;;0.87;0.87;;;20.30;99.90;;;20.69;nan;100177.66;5006147;28;20660;-67
2023/07/30 03:26:37;;;;;;;0.77;0.77;;;20.30;99.90;;;20.65;nan;100181.69;4981949;28;20670;-66
2023/07/30 03:29:04;;;;;;;0.73;0.73;;;20.30;99.90;;;20.62;nan;100177.59;4999327;28;20637;-67
2023/07/30 03:31:31;;;;;;;0.90;0.90;;;20.30;99.90;;;20.61;nan;100169.84;4995446;28;20672;-67
2023/07/30 03:33:59;;;;;;;0.80;0.80;;;20.20;99.90;;;20.59;nan;100180.59;5002016;28;20645;-67
2023/07/30 03:36:26;;;;;;;0.83;0.83;;;20.20;99.90;;;20.58;nan;100184.28;5001072;28;20668;-67
2023/07/30 03:38:53;;;;;;;0.80;0.80;;;20.20;99.90;;;20.61;nan;100188.38;5004077;28;20633;-67
2023/07/30 03:41:20;;;;;;;2.97;0.90;;;20.20;99.90;;;20.62;nan;100185.53;4999733;28;20682;-68
2023/07/30 03:43:48;;;;;;;0.70;0.70;;;20.20;99.90;;;20.61;nan;100183.09;4996616;28;20645;-66
2023/07/30 03:46:15;;;;;;;0.70;0.70;;;20.20;99.90;;;20.60;nan;100184.91;4994231;28;20666;-67
2023/07/30 03:48:42;;;;;;;0.90;0.90;;;20.20;99.90;;;20.54;nan;100185.66;5004500;28;20699;-66
2023/07/30 03:51:09;;;;;;;0.77;0.77;;;20.20;99.90;;;20.54;nan;100180.34;4985431;28;21233;-67
2023/07/30 03:53:36;;;;;;;0.90;0.90;;;20.10;99.90;;;20.54;nan;100184.81;5007932;28;20642;-67
2023/07/30 03:56:03;;;;;;;1.30;1.20;;;20.10;99.90;;;20.54;nan;100188.31;5005523;28;20666;-66
2023/07/30 03:58:30;;;;;;;0.90;0.90;;;20.10;99.90;;;20.55;nan;100187.28;5002995;28;20647;-67
2023/07/30 04:00:57;;;;;;;0.70;0.70;;;20.10;99.90;;;20.58;nan;100186.94;4995751;28;20637;-67
2023/07/30 04:03:24;;;;;;;1.47;1.37;;;20.20;99.90;;;20.60;nan;100192.84;5002155;28;20638;-66
2023/07/30 04:05:51;;;;;;;0.80;0.80;;;20.20;99.90;;;20.60;nan;100190.22;4994347;28;21030;-67
2023/07/30 04:08:18;;;;;;;0.77;0.77;;;20.20;99.90;;;20.60;nan;100195.50;5001610;28;20649;-67
2023/07/30 04:10:45;;;;;;;0.70;0.70;;;20.20;99.90;;;20.63;nan;100199.63;5010999;28;20647;-65
2023/07/30 04:13:12;;;;;;;0.90;0.90;;;20.20;99.90;;;20.64;nan;100199.44;4999659;28;20677;-67
2023/07/30 04:15:39;;;;;;;0.90;0.90;;;20.30;99.90;;;20.69;nan;100196.22;4999855;28;21009;-66
2023/07/30 04:18:06;;;;;;;0.80;0.80;;;20.30;99.90;;;20.73;nan;100202.81;5010201;28;20629;-66
2023/07/30 04:20:33;;;;;;;0.83;0.83;;;20.40;99.90;;;20.74;nan;100213.22;4995024;28;20641;-66
2023/07/30 04:23:00;;;;;;;0.70;0.70;;;20.40;99.90;;;20.74;nan;100207.91;4993347;28;20630;-67
2023/07/30 04:25:28;;;;;;;1.23;1.13;;;20.40;99.90;;;20.73;nan;100206.28;5001786;28;20644;-68
2023/07/30 04:27:55;;;;;;;1.03;1.03;;;20.40;99.90;;;20.73;nan;100214.22;4999687;28;20670;-67
2023/07/30 04:30:22;;;;;;;1.30;0.90;;;20.40;99.90;;;20.73;nan;100218.72;5007727;28;20646;-67
2023/07/30 04:32:49;;;;;;;0.93;0.93;;;20.40;99.90;;;20.74;nan;100218.50;4998956;28;20669;-66
2023/07/30 04:35:16;;;;;;;0.97;0.97;;;20.40;99.90;;;20.73;nan;100211.59;4989238;28;21051;-67
2023/07/30 04:37:43;;;;;;;0.90;0.90;;;20.40;99.90;;;20.74;nan;100223.81;5012112;28;20747;-66
2023/07/30 04:40:10;;;;;;;1.17;1.07;;;20.40;99.90;;;20.71;nan;100218.06;5007594;28;22156;-67
2023/07/30 04:42:37;;;;;;;2.53;1.10;;;20.30;99.90;;;20.66;nan;100210.66;5007966;28;20645;-68
2023/07/30 04:45:05;;;;;;;0.90;0.90;;;20.30;99.90;;;20.63;nan;100215.53;4991848;28;21237;-67
2023/07/30 04:47:32;;;;;;;0.73;0.73;;;20.30;99.90;;;20.62;nan;100208.56;5005205;28;21242;-64
2023/07/30 04:49:59;;;;;;;1.10;1.10;;;20.30;99.90;;;20.60;nan;100214.06;4995694;28;20645;-68
2023/07/30 04:52:26;;;;;;;0.70;0.70;;;20.30;99.90;;;20.60;nan;100214.06;4994406;28;20676;-68
2023/07/30 04:54:53;;;;;;;0.77;0.70;;;20.20;99.90;;;20.59;nan;100208.97;4998867;28;21194;-67
2023/07/30 04:57:20;;;;;;;0.70;0.70;;;20.20;99.90;;;20.58;nan;100205.47;5002534;28;20662;-67
2023/07/30 04:59:47;;;;;;;1.50;1.17;;;20.20;99.90;;;20.58;nan;100218.72;5001613;28;20633;-68
2023/07/30 05:02:14;;;;;;;1.70;0.90;;;20.20;99.90;;;20.58;nan;100220.56;5000462;28;20656;-68
2023/07/30 05:04:41;;;;;;;0.90;0.90;;;20.20;99.90;;;20.56;nan;100217.25;5000083;28;20641;-68
2023/07/30 05:07:08;;;;;;;1.30;1.20;;;20.20;99.90;;;20.57;nan;100213.63;5006144;28;20695;-66
2023/07/30 05:09:34;;;;;;;1.00;1.00;;;20.20;99.90;;;20.62;nan;100208.56;4995959;28;21198;-67
2023/07/30 05:12:02;;;;;;;1.37;1.27;;;20.20;99.90;;;20.71;nan;100210.13;4991837;28;20681;-66
2023/07/30 05:14:29;;;;;;;1.23;1.10;;;20.30;99.90;;;20.78;nan;100211.03;5003248;28;20634;-67
2023/07/30 05:16:55;;;;;;;1.00;1.00;;;20.40;99.90;;;20.87;nan;100207.25;5010781;28;20646;-65
2023/07/30 05:19:22;;;;;;;0.83;0.83;;;20.50;99.90;;;20.95;nan;100201.03;4999990;28;20634;-67
2023/07/30 05:21:49;;;;;;;0.70;0.70;;;20.60;99.90;;;21.06;nan;100206.66;5004213;28;20653;-68
2023/07/30 05:24:16;;;;;;;0.83;0.83;;;20.60;99.90;;;21.36;nan;100205.56;4988733;28;21174;-66
2023/07/30 05:26:43;;;;;;;0.63;0.63;;;20.90;99.90;;;21.71;nan;100205.66;5000249;28;20658;-67
2023/07/30 05:29:10;;;;;;;1.00;1.00;;;21.30;99.90;;;22.07;nan;100203.72;5008232;28;20649;-68
2023/07/30 05:31:37;;;;;;;1.47;1.20;;;21.60;99.90;;;22.43;nan;100204.34;5002962;28;20633;-67
2023/07/30 05:34:04;;;;;;;0.80;0.80;;;22.00;99.90;;;22.67;nan;100203.88;5001226;28;21035;-67
2023/07/30 05:36:31;;;;;;;1.63;1.20;;;22.30;99.90;;;22.83;nan;100200.84;4998562;28;20732;-67
2023/07/30 05:38:58;;;;;;;1.37;1.27;;;22.40;99.90;;;23.05;nan;100199.69;4996258;28;20630;-67
2023/07/30 05:41:25;;;;;;;1.10;0.93;;;22.60;99.90;;;23.25;nan;100198.91;4997910;28;21205;-67
2023/07/30 05:43:52;;;;;;;1.07;1.07;;;22.80;99.90;;;23.56;nan;100201.84;4988407;28;20704;-67
2023/07/30 05:46:19;;;;;;;1.13;0.90;;;23.10;99.90;;;23.92;nan;100210.25;5000672;28;20674;-67
2023/07/30 05:48:46;;;;;;;1.43;1.30;;;23.40;99.90;;;24.30;nan;100210.44;5006785;28;20652;-67
2023/07/30 05:51:13;;;;;;;0.90;0.90;;;23.80;99.90;;;24.71;nan;100202.06;4990379;28;20647;-68
2023/07/30 05:53:40;;;;;;;0.90;0.90;;;24.10;99.90;;;24.99;nan;100199.91;4990144;28;20804;-68
2023/07/30 05:56:07;;;;;;;1.10;1.10;;;24.50;99.90;;;25.09;nan;100206.41;4994954;28;21018;-67
2023/07/30 05:58:34;;;;;;;1.70;1.20;;;24.60;99.90;;;25.07;nan;100208.47;5003962;28;21092;-67
2023/07/30 06:01:01;;;;;;;1.30;1.30;;;24.70;99.90;;;24.87;nan;100218.47;5006250;28;21184;-65
2023/07/30 06:03:28;;;;;;;1.20;1.10;;;24.50;99.90;;;24.54;nan;100218.56;5003873;28;20719;-67
2023/07/30 06:05:55;;;;;;;1.13;1.13;;;24.20;99.90;;;24.22;nan;100214.13;4996936;28;20641;-67
2023/07/30 06:08:22;;;;;;;1.23;1.23;;;23.90;99.90;;;23.84;nan;100221.09;4995812;28;20656;-67
2023/07/30 06:10:50;;;;;;;1.37;1.20;;;23.50;99.90;;;23.54;nan;100227.84;4994468;28;20646;-67
2023/07/30 06:13:16;;;;;;;1.10;1.00;;;23.20;99.90;;;23.32;nan;100231.72;4993308;28;20677;-67
2023/07/30 06:15:43;;;;;;;1.43;1.37;;;23.00;99.90;;;23.16;nan;100219.59;5005104;28;20645;-67
2023/07/30 06:18:10;;;;;;;0.97;0.97;;;22.90;99.90;;;23.03;nan;100223.03;5003556;28;20646;-67
2023/07/30 06:20:37;;;;;;;0.90;0.90;;;22.70;99.90;;;22.90;nan;100232.78;4996752;28;20667;-66
2023/07/30 06:23:04;;;;;;;1.13;1.13;;;22.60;99.90;;;22.81;nan;100229.50;5003517;28;21127;-68
2023/07/30 06:25:31;;;;;;;1.30;1.20;;;22.50;99.90;;;22.72;nan;100229.88;5008140;28;20648;-67
2023/07/30 06:27:58;;;;;;;1.00;1.00;;;22.40;99.90;;;22.62;nan;100230.22;4999504;28;20674;-66
2023/07/30 06:30:25;;;;;;;1.07;1.07;;;22.30;99.90;;;22.56;nan;100219.53;5000053;28;20642;-67
2023/07/30 06:32:52;;;;;;;4.53;1.30;;;22.20;99.90;;;22.46;nan;100227.88;4994005;28;20657;-66
2023/07/30 06:35:19;;;;;;;1.43;1.40;;;22.10;99.90;;;22.44;nan;100224.59;4983792;28;20650;-67
2023/07/30 06:37:46;;;;;;;1.07;1.07;;;22.10;99.90;;;22.42;nan;100223.97;5002340;28;20674;-67
2023/07/30 06:40:13;;;;;;;1.30;1.20;;;22.00;99.90;;;22.54;nan;100224.22;4997490;28;20699;-69
2023/07/30 06:42:40;;;;;;;1.10;1.10;;;22.10;99.90;;;22.86;nan;100232.38;5003194;28;20689;-67
2023/07/30 06:45:08;;;;;;;1.33;1.23;;;22.40;99.90;;;23.48;nan;100236.66;4985937;28;20642;-68
2023/07/30 06:47:35;;;;;;;1.47;1.40;;;22.90;99.90;;;24.26;nan;100239.34;4987859;28;20671;-65
2023/07/30 06:50:04;;;;;;;1.10;1.10;;;23.70;99.90;;;24.93;nan;100235.47;4983077;28;20653;-67
2023/07/30 06:52:31;;;;;;;1.90;1.40;;;24.40;99.90;;;25.06;nan;100246.06;4997468;28;21280;-71
2023/07/30 06:54:58;;;;;;;1.73;1.63;;;24.60;99.90;;;24.75;nan;100246.00;4990651;28;20641;-68
2023/07/30 06:57:25;;;;;;;1.20;1.20;;;24.40;99.90;;;24.42;nan;100238.06;4991129;28;20650;-68
2023/07/30 06:59:52;;;;;;;1.43;1.33;;;24.10;99.90;;;24.16;nan;100240.78;4984784;28;21022;-67
2023/07/30 07:02:19;;;;;;;1.57;1.47;;;23.80;99.90;;;24.04;nan;100243.28;4990936;28;20646;-67
2023/07/30 07:04:46;;;;;;;1.20;1.20;;;23.70;99.90;;;23.98;nan;100243.25;4993460;28;22182;-68
2023/07/30 07:07:13;;;;;;;1.10;1.10;;;23.60;99.90;;;23.86;nan;100246.53;5009030;28;20673;-65
2023/07/30 07:09:40;;;;;;;1.50;1.50;;;23.50;99.90;;;23.72;nan;100250.19;5004183;28;21190;-68
2023/07/30 07:12:08;;;;;;;1.13;1.13;;;23.40;99.90;;;23.57;nan;100248.78;5002776;28;20659;-67
2023/07/30 07:14:35;;;;;;;1.27;1.20;;;23.20;99.90;;;23.39;nan;100254.66;4997836;28;20636;-67
2023/07/30 07:17:01;;;;;;;1.10;1.10;;;23.00;99.90;;;23.27;nan;100250.94;5004104;28;21262;-67
2023/07/30 07:19:28;;;;;;;2.37;1.30;;;22.90;99.90;;;23.16;nan;100254.19;5014656;28;21182;-67
2023/07/30 07:21:55;;;;;;;1.57;1.50;;;22.80;99.90;;;23.10;nan;100250.50;5002552;28;20641;-66
2023/07/30 07:24:22;;;;;;;1.37;1.27;;;22.70;99.90;;;23.06;nan;100262.53;5013443;28;20633;-67
2023/07/30 07:26:50;;;;;;;1.47;1.40;;;22.70;99.90;;;23.06;nan;100267.06;4999308;28;20666;-67
2023/07/30 07:29:17;;;;;;;1.30;1.30;;;22.60;99.90;;;23.05;nan;100258.25;4995838;28;21198;-68
2023/07/30 07:31:45;;;;;;;1.37;1.37;;;22.60;99.90;;;23.14;nan;100262.38;4995932;28;20692;-67
2023/07/30 07:34:12;;;;;;;1.83;1.73;;;22.70;99.90;;;23.42;nan;100258.78;4993730;28;20677;-68
2023/07/30 07:36:39;;;;;;;1.70;1.60;;;22.90;99.90;;;24.19;nan;100265.19;4992097;28;20658;-67
2023/07/30 07:39:06;;;;;;;1.00;1.00;;;23.60;99.90;;;24.82;nan;100265.47;4999417;28;20635;-66
2023/07/30 07:41:33;;;;;;;1.37;1.27;;;24.30;99.90;;;25.40;nan;100262.53;4991995;28;21266;-66
2023/07/30 07:44:00;;;;;;;1.80;1.70;;;24.90;99.90;;;26.22;nan;100261.50;5011639;28;21211;-66
2023/07/30 07:46:27;;;;;;;1.60;1.50;;;25.70;99.90;;;26.52;nan;100267.78;5000148;28;20669;-67
2023/07/30 07:48:54;;;;;;;1.43;1.33;;;26.00;99.90;;;26.96;nan;100266.66;5012651;28;20649;-69
2023/07/30 07:51:21;;;;;;;1.20;1.20;;;26.50;99.90;;;27.82;nan;100269.78;4993157;28;20665;-69
2023/07/30 07:53:48;;;;;;;1.83;1.40;;;27.20;99.90;;;29.17;nan;100267.75;4996048;28;20685;-68
2023/07/30 07:56:15;;;;;;;3.17;1.50;;;28.50;99.90;;;30.50;nan;100266.75;4993436;28;20684;-69
2023/07/30 07:58:43;;;;;;;1.27;1.27;;;29.90;99.90;;;31.45;nan;100260.09;4997604;28;20657;-65
2023/07/30 08:01:10;;;;;;;1.13;1.13;;;31.00;99.90;;;31.98;nan;100262.72;4996800;28;20637;-64
2023/07/30 08:03:37;;;;;;;1.03;1.03;;;31.70;99.90;;;32.01;nan;100260.31;4997567;28;20645;-67
2023/07/30 08:06:04;;;;;;;1.40;1.40;;;31.80;99.90;;;31.74;nan;100250.63;4997486;28;20658;-63
2023/07/30 08:08:31;;;;;;;1.43;1.33;;;31.60;99.10;;;31.45;nan;100258.22;5004657;28;20641;-66
2023/07/30 08:10:58;;;;;;;1.60;1.60;;;31.30;98.10;;;31.71;nan;100264.66;5003811;28;21073;-66
2023/07/30 08:13:25;;;;;;;1.20;1.20;;;31.40;97.50;;;32.03;nan;100263.56;4998561;28;20676;-68
2023/07/30 08:15:52;;;;;;;1.30;1.20;;;31.70;97.20;;;32.65;nan;100276.38;5000434;28;20629;-64
2023/07/30 08:18:18;;;;;;;1.60;1.50;;;32.30;95.60;;;32.69;nan;100280.19;5002548;28;21231;-67
2023/07/30 08:20:45;;;;;;;1.20;1.20;;;32.50;94.80;;;32.27;nan;100280.19;4999818;28;21179;-66
2023/07/30 08:23:12;;;;;;;1.20;1.10;;;32.20;94.40;;;32.10;nan;100280.34;5000505;28;21250;-67
2023/07/30 08:25:39;;;;;;;1.60;1.60;;;31.90;94.80;;;32.13;nan;100279.84;5008283;28;20649;-67
2023/07/30 08:28:06;;;;;;;0.77;0.77;;;32.00;94.90;;;31.99;nan;100278.66;5008248;28;20645;-66
2023/07/30 08:30:33;;;;;;;1.47;1.37;;;31.90;93.90;;;32.66;nan;100283.41;4991780;28;20641;-68
2023/07/30 08:33:00;;;;;;;1.97;1.87;;;32.40;93.20;;;33.07;nan;100287.94;5004959;28;20692;-70
2023/07/30 08:35:28;;;;;;;1.43;1.43;;;32.90;92.20;;;33.35;nan;100290.16;4993551;28;21189;-68
2023/07/30 08:37:55;;;;;;;1.27;1.27;;;33.10;91.50;;;33.96;nan;100282.13;5004993;28;20669;-67
2023/07/30 08:40:25;;;;;;;1.43;1.40;;;33.80;89.60;;;34.36;nan;100282.91;4998435;28;20637;-69
2023/07/30 08:42:53;;;;;;;1.23;1.23;;;34.30;88.20;;;34.05;nan;100280.53;5009077;28;20634;-67
2023/07/30 08:45:21;;;;;;;1.40;1.40;;;34.10;84.50;;;33.98;nan;100283.47;5000024;28;20644;-69
2023/07/30 08:47:48;;;;;;;1.00;1.00;;;33.90;83.30;;;34.33;nan;100282.66;5005977;28;20661;-68
2023/07/30 08:50:15;;;;;;;1.10;1.10;;;34.10;83.10;;;34.91;nan;100284.63;4995545;28;21241;-67
2023/07/30 08:52:43;;;;;;;1.50;1.50;;;34.50;81.20;;;35.19;nan;100285.03;5007233;28;20625;-68
2023/07/30 08:55:11;;;;;;;1.30;1.30;;;35.00;79.20;;;34.48;nan;100285.28;5000811;28;21196;-69
2023/07/30 08:57:39;;;;;;;1.13;1.13;;;34.40;77.50;;;33.50;nan;100290.22;5004406;28;20666;-71
2023/07/30 09:00:09;;;;;;;1.40;1.30;;;33.40;78.30;;;33.45;nan;100290.19;5024014;28;21011;-68
2023/07/30 09:02:51;;;;;;;1.20;1.20;;;33.00;80.50;;;32.78;nan;100286.69;4990334;28;20642;-70
2023/07/30 09:05:20;;;;;;;1.00;1.00;;;32.40;81.10;;;31.91;nan;100292.59;4996368;28;20643;-72
2023/07/30 09:07:47;;;;;;;1.23;1.23;;;31.50;83.00;;;31.06;nan;100289.03;4995471;28;20684;-68
2023/07/30 09:10:15;;;;;;;1.30;1.20;;;30.80;83.80;;;30.47;nan;100283.41;4990572;28;21231;-67
2023/07/30 09:12:42;;;;;;;1.30;1.20;;;30.10;84.70;;;30.00;nan;100284.84;5000725;28;20617;-69
2023/07/30 09:15:09;;;;;;;1.40;1.37;;;29.60;86.50;;;29.49;nan;100280.44;4990591;28;20704;-67
2023/07/30 09:17:36;;;;;;;1.43;1.43;;;29.20;87.20;;;29.14;nan;100285.94;5010917;28;20665;-69
2023/07/30 09:20:05;;;;;;;1.50;1.40;;;28.80;88.70;;;28.72;nan;100284.53;4997279;28;20630;-67
2023/07/30 09:22:36;;;;;;;1.10;1.10;;;28.40;89.60;;;28.24;nan;100287.47;4989370;28;20649;-67
2023/07/30 09:25:04;;;;;;;1.17;1.17;;;27.90;90.30;;;27.78;nan;100283.88;4994911;28;21450;-66
2023/07/30 09:27:32;;;;;;;1.47;1.47;;;27.50;90.70;;;27.22;nan;100295.78;4998572;28;20661;-67
2023/07/30 09:30:02;;;;;;;1.30;1.20;;;27.00;91.50;;;26.83;nan;100302.44;4989368;28;20682;-64
2023/07/30 09:32:32;;;;;;;1.43;1.40;;;26.50;92.40;;;26.36;nan;100297.81;4997089;28;20638;-66
2023/07/30 09:35:09;;;;;;;1.27;1.27;;;26.10;93.30;;;26.15;nan;100299.00;4994721;28;20677;-67
2023/07/30 09:37:39;;;;;;;0.97;0.97;;;25.80;94.10;;;26.01;nan;100305.47;4985777;28;21056;-69
2023/07/30 09:40:09;;;;;;;1.00;1.00;;;25.60;94.30;;;25.85;nan;100314.00;4986343;28;21440;-71
2023/07/30 09:42:39;;;;;;;0.93;0.93;;;25.40;94.30;;;25.71;nan;100320.50;4989542;28;20651;-66
2023/07/30 09:45:08;;;;;;;0.80;0.80;;;25.30;94.50;;;25.64;nan;100329.59;4989466;28;20649;-67
2023/07/30 09:47:37;;;;;;;0.53;0.53;;;25.20;94.80;;;25.48;nan;100325.56;5002047;28;20703;-69
2023/07/30 09:50:05;;;;;;;1.30;1.20;;;25.00;94.90;;;25.45;nan;100328.66;5006788;28;20633;-66
2023/07/30 09:52:32;;;;;;;0.63;0.63;;;25.00;95.50;;;25.56;nan;100330.66;4981802;28;20639;-68
2023/07/30 09:55:00;;;;;;;0.90;0.90;;;25.00;95.70;;;25.75;nan;100331.56;5003963;28;20703;-67
2023/07/30 09:57:27;;;;;;;1.10;0.90;;;25.20;95.60;;;25.92;nan;100338.03;4992878;28;20665;-67
2023/07/30 09:59:54;;;;;;;1.07;1.07;;;25.30;95.70;;;25.95;nan;100341.09;5005155;28;20638;-68
2023/07/30 10:02:23;;;;;;;0.70;0.70;;;25.40;96.00;;;25.87;nan;100338.69;4993098;28;20645;-68
2023/07/30 10:04:53;;;;;;;0.90;0.90;;;25.40;96.20;;;25.88;nan;100351.00;5008526;28;20642;-68
2023/07/30 10:07:23;;;;;;;1.20;1.10;;;25.40;96.30;;;25.88;nan;100345.66;4997176;28;20677;-66
2023/07/30 10:09:55;;;;;;;0.77;0.77;;;25.40;96.30;;;26.17;nan;100345.06;4989606;28;20643;-67
2023/07/30 10:12:27;;;;;;;0.57;0.57;;;25.70;96.50;;;27.10;nan;100356.53;4980625;28;20715;-66
2023/07/30 10:14:54;;;;;;;1.53;1.00;;;26.60;95.70;;;28.04;nan;100355.91;4993360;28;20686;-67
2023/07/30 10:17:21;;;;;;;0.70;0.70;;;27.50;94.40;;;28.84;nan;100357.00;4993530;28;20669;-66
2023/07/30 10:19:50;;;;;;;0.73;0.63;;;28.20;93.60;;;29.51;nan;100369.72;4998040;28;20634;-67
2023/07/30 10:22:24;;;;;;;1.13;1.03;;;28.70;92.70;;;29.41;nan;100366.03;5001022;28;20639;-70
2023/07/30 10:25:02;;;;;;;0.70;0.70;;;28.80;91.80;;;28.75;nan;100366.50;4979078;28;20642;-66